sensor_id;sensor_type;location;lat;lon;timestamp;P1;durP1;ratioP1;P2;durP2;ratioP2
61038;SDS011;46919;45.816;3.104;2023-05-20T00:01:58;6.13;;;2.20;;
61038;SDS011;46919;45.816;3.104;2023-05-20T00:04:23;3.88;;;2.13;;
61038;SDS011;46919;45.816;3.104;2023-05-20T00:06:49;5.65;;;2.17;;
61038;SDS011;46919;45.816;3.104;2023-05-20T00:09:14;4.80;;;2.10;;
61038;SDS011;46919;45.816;3.104;2023-05-20T00:11:41;3.80;;;1.90;;
61038;SDS011;46919;45.816;3.104;2023-05-20T00:14:06;4.57;;;2.20;;
61038;SDS011;46919;45.816;3.104;2023-05-20T00:16:32;7.10;;;1.92;;
61038;SDS011;46919;45.816;3.104;2023-05-20T00:18:57;4.22;;;1.80;;
61038;SDS011;46919;45.816;3.104;2023-05-20T00:21:23;7.78;;;2.00;;
61038;SDS011;46919;45.816;3.104;2023-05-20T00:23:48;4.30;;;2.20;;
61038;SDS011;46919;45.816;3.104;2023-05-20T00:26:14;5.55;;;2.25;;
61038;SDS011;46919;45.816;3.104;2023-05-20T00:28:39;5.40;;;1.90;;
61038;SDS011;46919;45.816;3.104;2023-05-20T00:31:05;5.72;;;2.10;;
61038;SDS011;46919;45.816;3.104;2023-05-20T00:33:30;5.95;;;2.05;;
61038;SDS011;46919;45.816;3.104;2023-05-20T00:35:56;4.50;;;2.30;;
61038;SDS011;46919;45.816;3.104;2023-05-20T00:38:21;8.15;;;2.10;;
61038;SDS011;46919;45.816;3.104;2023-05-20T00:40:46;5.00;;;2.13;;
61038;SDS011;46919;45.816;3.104;2023-05-20T00:43:12;4.45;;;1.90;;
61038;SDS011;46919;45.816;3.104;2023-05-20T00:45:37;4.28;;;2.10;;
61038;SDS011;46919;45.816;3.104;2023-05-20T00:48:03;5.85;;;1.98;;
61038;SDS011;46919;45.816;3.104;2023-05-20T00:50:29;8.38;;;2.10;;
61038;SDS011;46919;45.816;3.104;2023-05-20T00:52:55;5.25;;;2.10;;
61038;SDS011;46919;45.816;3.104;2023-05-20T00:55:22;6.30;;;2.25;;
61038;SDS011;46919;45.816;3.104;2023-05-20T00:57:49;4.03;;;2.05;;
61038;SDS011;46919;45.816;3.104;2023-05-20T01:00:14;5.00;;;1.88;;
61038;SDS011;46919;45.816;3.104;2023-05-20T01:02:40;6.18;;;2.40;;
61038;SDS011;46919;45.816;3.104;2023-05-20T01:05:05;7.28;;;2.47;;
61038;SDS011;46919;45.816;3.104;2023-05-20T01:07:31;4.50;;;2.20;;
61038;SDS011;46919;45.816;3.104;2023-05-20T01:09:58;6.93;;;2.17;;
61038;SDS011;46919;45.816;3.104;2023-05-20T01:15:06;7.68;;;2.38;;
61038;SDS011;46919;45.816;3.104;2023-05-20T01:17:34;5.10;;;1.83;;
61038;SDS011;46919;45.816;3.104;2023-05-20T01:20:02;4.68;;;2.20;;
61038;SDS011;46919;45.816;3.104;2023-05-20T01:22:31;7.57;;;2.40;;
61038;SDS011;46919;45.816;3.104;2023-05-20T01:24:56;7.22;;;2.25;;
61038;SDS011;46919;45.816;3.104;2023-05-20T01:27:22;5.43;;;2.30;;
61038;SDS011;46919;45.816;3.104;2023-05-20T01:29:48;6.93;;;2.00;;
61038;SDS011;46919;45.816;3.104;2023-05-20T01:32:34;4.07;;;2.05;;
61038;SDS011;46919;45.816;3.104;2023-05-20T01:35:03;6.32;;;2.40;;
61038;SDS011;46919;45.816;3.104;2023-05-20T01:37:30;5.55;;;2.10;;
61038;SDS011;46919;45.816;3.104;2023-05-20T01:39:56;6.65;;;1.80;;
61038;SDS011;46919;45.816;3.104;2023-05-20T01:42:22;5.47;;;2.17;;
61038;SDS011;46919;45.816;3.104;2023-05-20T01:44:51;7.18;;;2.20;;
61038;SDS011;46919;45.816;3.104;2023-05-20T01:47:16;4.60;;;1.80;;
61038;SDS011;46919;45.816;3.104;2023-05-20T01:49:42;6.07;;;2.05;;
61038;SDS011;46919;45.816;3.104;2023-05-20T01:52:10;7.03;;;2.13;;
61038;SDS011;46919;45.816;3.104;2023-05-20T01:54:35;3.78;;;2.00;;
61038;SDS011;46919;45.816;3.104;2023-05-20T01:57:01;4.72;;;2.30;;
61038;SDS011;46919;45.816;3.104;2023-05-20T01:59:26;7.50;;;2.40;;
61038;SDS011;46919;45.816;3.104;2023-05-20T02:01:52;4.13;;;2.25;;
61038;SDS011;46919;45.816;3.104;2023-05-20T02:04:17;2.72;;;2.15;;
61038;SDS011;46919;45.816;3.104;2023-05-20T02:06:43;6.75;;;2.35;;
61038;SDS011;46919;45.816;3.104;2023-05-20T02:09:09;6.32;;;2.10;;
61038;SDS011;46919;45.816;3.104;2023-05-20T02:11:35;4.82;;;1.95;;
61038;SDS011;46919;45.816;3.104;2023-05-20T02:14:00;6.15;;;2.60;;
61038;SDS011;46919;45.816;3.104;2023-05-20T02:16:26;4.07;;;2.25;;
61038;SDS011;46919;45.816;3.104;2023-05-20T02:18:52;4.47;;;2.33;;
61038;SDS011;46919;45.816;3.104;2023-05-20T02:21:17;5.35;;;2.20;;
61038;SDS011;46919;45.816;3.104;2023-05-20T02:23:43;4.25;;;2.25;;
61038;SDS011;46919;45.816;3.104;2023-05-20T02:26:08;4.28;;;2.20;;
61038;SDS011;46919;45.816;3.104;2023-05-20T02:28:34;7.93;;;2.55;;
61038;SDS011;46919;45.816;3.104;2023-05-20T02:30:59;5.85;;;2.30;;
61038;SDS011;46919;45.816;3.104;2023-05-20T02:33:24;5.32;;;2.17;;
61038;SDS011;46919;45.816;3.104;2023-05-20T02:35:52;6.07;;;2.35;;
61038;SDS011;46919;45.816;3.104;2023-05-20T02:38:18;5.00;;;2.20;;
61038;SDS011;46919;45.816;3.104;2023-05-20T02:40:43;8.45;;;2.38;;
61038;SDS011;46919;45.816;3.104;2023-05-20T02:43:09;4.85;;;2.20;;
61038;SDS011;46919;45.816;3.104;2023-05-20T02:45:34;4.93;;;2.15;;
61038;SDS011;46919;45.816;3.104;2023-05-20T02:48:00;7.03;;;2.20;;
61038;SDS011;46919;45.816;3.104;2023-05-20T02:50:26;5.68;;;2.20;;
61038;SDS011;46919;45.816;3.104;2023-05-20T02:52:51;6.47;;;2.35;;
61038;SDS011;46919;45.816;3.104;2023-05-20T02:55:16;4.25;;;2.30;;
61038;SDS011;46919;45.816;3.104;2023-05-20T02:57:42;5.15;;;2.10;;
61038;SDS011;46919;45.816;3.104;2023-05-20T03:00:07;10.00;;;2.53;;
61038;SDS011;46919;45.816;3.104;2023-05-20T03:02:37;5.35;;;2.05;;
61038;SDS011;46919;45.816;3.104;2023-05-20T03:05:03;4.03;;;2.20;;
61038;SDS011;46919;45.816;3.104;2023-05-20T03:07:29;4.70;;;2.42;;
61038;SDS011;46919;45.816;3.104;2023-05-20T03:09:55;5.45;;;2.38;;
61038;SDS011;46919;45.816;3.104;2023-05-20T03:12:23;6.53;;;2.20;;
61038;SDS011;46919;45.816;3.104;2023-05-20T03:14:50;4.53;;;2.53;;
61038;SDS011;46919;45.816;3.104;2023-05-20T03:17:19;8.57;;;2.15;;
61038;SDS011;46919;45.816;3.104;2023-05-20T03:19:45;5.53;;;2.30;;
61038;SDS011;46919;45.816;3.104;2023-05-20T03:22:10;5.68;;;2.50;;
61038;SDS011;46919;45.816;3.104;2023-05-20T03:24:36;6.53;;;2.40;;
61038;SDS011;46919;45.816;3.104;2023-05-20T03:27:01;6.65;;;2.15;;
61038;SDS011;46919;45.816;3.104;2023-05-20T03:29:27;5.88;;;2.25;;
61038;SDS011;46919;45.816;3.104;2023-05-20T03:31:52;6.30;;;2.33;;
61038;SDS011;46919;45.816;3.104;2023-05-20T03:34:17;4.53;;;2.35;;
61038;SDS011;46919;45.816;3.104;2023-05-20T03:36:43;5.75;;;2.50;;
61038;SDS011;46919;45.816;3.104;2023-05-20T03:39:08;5.63;;;2.40;;
61038;SDS011;46919;45.816;3.104;2023-05-20T03:41:34;6.97;;;2.38;;
61038;SDS011;46919;45.816;3.104;2023-05-20T03:43:59;7.35;;;2.50;;
61038;SDS011;46919;45.816;3.104;2023-05-20T03:46:25;6.63;;;2.75;;
61038;SDS011;46919;45.816;3.104;2023-05-20T03:48:50;4.75;;;2.63;;
61038;SDS011;46919;45.816;3.104;2023-05-20T03:51:15;7.28;;;2.53;;
61038;SDS011;46919;45.816;3.104;2023-05-20T03:53:41;4.90;;;2.40;;
61038;SDS011;46919;45.816;3.104;2023-05-20T03:56:06;7.60;;;2.58;;
61038;SDS011;46919;45.816;3.104;2023-05-20T03:58:32;6.80;;;2.40;;
61038;SDS011;46919;45.816;3.104;2023-05-20T04:00:57;7.85;;;2.70;;
61038;SDS011;46919;45.816;3.104;2023-05-20T04:03:23;5.95;;;2.70;;
61038;SDS011;46919;45.816;3.104;2023-05-20T04:05:48;7.15;;;2.58;;
61038;SDS011;46919;45.816;3.104;2023-05-20T04:08:14;5.70;;;3.00;;
61038;SDS011;46919;45.816;3.104;2023-05-20T04:10:40;4.00;;;2.20;;
61038;SDS011;46919;45.816;3.104;2023-05-20T04:13:09;5.57;;;2.85;;
61038;SDS011;46919;45.816;3.104;2023-05-20T04:15:35;7.75;;;2.80;;
61038;SDS011;46919;45.816;3.104;2023-05-20T04:18:02;3.78;;;2.05;;
61038;SDS011;46919;45.816;3.104;2023-05-20T04:20:29;6.00;;;2.10;;
61038;SDS011;46919;45.816;3.104;2023-05-20T04:22:55;5.95;;;2.47;;
61038;SDS011;46919;45.816;3.104;2023-05-20T04:25:20;7.43;;;2.30;;
61038;SDS011;46919;45.816;3.104;2023-05-20T04:27:46;8.48;;;2.55;;
61038;SDS011;46919;45.816;3.104;2023-05-20T04:30:12;4.35;;;2.30;;
61038;SDS011;46919;45.816;3.104;2023-05-20T04:32:37;7.10;;;2.35;;
61038;SDS011;46919;45.816;3.104;2023-05-20T04:35:03;12.10;;;2.88;;
61038;SDS011;46919;45.816;3.104;2023-05-20T04:37:33;4.80;;;2.50;;
61038;SDS011;46919;45.816;3.104;2023-05-20T04:39:59;5.78;;;2.60;;
61038;SDS011;46919;45.816;3.104;2023-05-20T04:42:27;6.40;;;2.60;;
61038;SDS011;46919;45.816;3.104;2023-05-20T04:44:53;7.70;;;2.90;;
61038;SDS011;46919;45.816;3.104;2023-05-20T04:47:19;4.75;;;2.13;;
61038;SDS011;46919;45.816;3.104;2023-05-20T04:49:44;4.00;;;2.30;;
61038;SDS011;46919;45.816;3.104;2023-05-20T04:52:10;9.73;;;2.30;;
61038;SDS011;46919;45.816;3.104;2023-05-20T04:54:35;9.07;;;2.40;;
61038;SDS011;46919;45.816;3.104;2023-05-20T04:57:00;7.25;;;2.47;;
61038;SDS011;46919;45.816;3.104;2023-05-20T04:59:26;4.50;;;2.42;;
61038;SDS011;46919;45.816;3.104;2023-05-20T05:01:52;6.32;;;2.50;;
61038;SDS011;46919;45.816;3.104;2023-05-20T05:04:17;8.00;;;2.40;;
61038;SDS011;46919;45.816;3.104;2023-05-20T05:06:43;4.88;;;2.28;;
61038;SDS011;46919;45.816;3.104;2023-05-20T05:09:10;5.25;;;2.40;;
61038;SDS011;46919;45.816;3.104;2023-05-20T05:11:37;5.07;;;2.53;;
61038;SDS011;46919;45.816;3.104;2023-05-20T05:14:03;6.85;;;2.47;;
61038;SDS011;46919;45.816;3.104;2023-05-20T05:16:28;6.07;;;2.80;;
61038;SDS011;46919;45.816;3.104;2023-05-20T05:18:53;5.95;;;2.88;;
61038;SDS011;46919;45.816;3.104;2023-05-20T05:21:19;5.95;;;2.60;;
61038;SDS011;46919;45.816;3.104;2023-05-20T05:23:44;5.75;;;2.53;;
61038;SDS011;46919;45.816;3.104;2023-05-20T05:26:10;7.10;;;2.47;;
61038;SDS011;46919;45.816;3.104;2023-05-20T05:28:35;5.57;;;2.22;;
61038;SDS011;46919;45.816;3.104;2023-05-20T05:31:00;5.03;;;2.35;;
61038;SDS011;46919;45.816;3.104;2023-05-20T05:33:26;3.13;;;2.40;;
61038;SDS011;46919;45.816;3.104;2023-05-20T05:35:52;6.38;;;2.55;;
61038;SDS011;46919;45.816;3.104;2023-05-20T05:38:17;4.65;;;2.65;;
61038;SDS011;46919;45.816;3.104;2023-05-20T05:40:43;7.85;;;2.63;;
61038;SDS011;46919;45.816;3.104;2023-05-20T05:43:08;7.60;;;2.78;;
61038;SDS011;46919;45.816;3.104;2023-05-20T05:45:33;7.18;;;2.60;;
61038;SDS011;46919;45.816;3.104;2023-05-20T05:47:59;6.07;;;2.40;;
61038;SDS011;46919;45.816;3.104;2023-05-20T05:50:24;6.35;;;2.55;;
61038;SDS011;46919;45.816;3.104;2023-05-20T05:52:49;4.25;;;2.40;;
61038;SDS011;46919;45.816;3.104;2023-05-20T05:55:15;6.13;;;3.00;;
61038;SDS011;46919;45.816;3.104;2023-05-20T05:57:42;5.55;;;2.40;;
61038;SDS011;46919;45.816;3.104;2023-05-20T06:00:07;7.28;;;2.30;;
61038;SDS011;46919;45.816;3.104;2023-05-20T06:02:33;6.90;;;2.38;;
61038;SDS011;46919;45.816;3.104;2023-05-20T06:05:03;3.33;;;2.17;;
61038;SDS011;46919;45.816;3.104;2023-05-20T06:07:28;4.35;;;2.50;;
61038;SDS011;46919;45.816;3.104;2023-05-20T06:09:54;8.48;;;2.60;;
61038;SDS011;46919;45.816;3.104;2023-05-20T06:12:19;8.13;;;2.72;;
61038;SDS011;46919;45.816;3.104;2023-05-20T06:14:45;6.82;;;2.63;;
61038;SDS011;46919;45.816;3.104;2023-05-20T06:17:11;5.95;;;2.35;;
61038;SDS011;46919;45.816;3.104;2023-05-20T06:19:37;6.82;;;2.42;;
61038;SDS011;46919;45.816;3.104;2023-05-20T06:22:02;4.80;;;2.53;;
61038;SDS011;46919;45.816;3.104;2023-05-20T06:24:28;5.95;;;2.67;;
61038;SDS011;46919;45.816;3.104;2023-05-20T06:26:53;5.63;;;2.65;;
61038;SDS011;46919;45.816;3.104;2023-05-20T06:29:18;8.40;;;3.00;;
61038;SDS011;46919;45.816;3.104;2023-05-20T06:31:44;6.45;;;3.47;;
61038;SDS011;46919;45.816;3.104;2023-05-20T06:34:09;4.30;;;2.85;;
61038;SDS011;46919;45.816;3.104;2023-05-20T06:36:35;4.85;;;2.55;;
61038;SDS011;46919;45.816;3.104;2023-05-20T06:39:00;6.35;;;3.15;;
61038;SDS011;46919;45.816;3.104;2023-05-20T06:41:25;8.95;;;2.80;;
61038;SDS011;46919;45.816;3.104;2023-05-20T06:43:51;4.45;;;2.63;;
61038;SDS011;46919;45.816;3.104;2023-05-20T06:46:16;5.63;;;2.70;;
61038;SDS011;46919;45.816;3.104;2023-05-20T06:48:42;8.20;;;3.15;;
61038;SDS011;46919;45.816;3.104;2023-05-20T06:51:07;6.45;;;3.00;;
61038;SDS011;46919;45.816;3.104;2023-05-20T06:53:33;6.18;;;3.00;;
61038;SDS011;46919;45.816;3.104;2023-05-20T06:55:59;5.65;;;3.35;;
61038;SDS011;46919;45.816;3.104;2023-05-20T06:58:25;7.53;;;2.50;;
61038;SDS011;46919;45.816;3.104;2023-05-20T07:00:50;7.78;;;3.28;;
61038;SDS011;46919;45.816;3.104;2023-05-20T07:03:15;5.43;;;2.53;;
61038;SDS011;46919;45.816;3.104;2023-05-20T07:05:41;6.93;;;2.65;;
61038;SDS011;46919;45.816;3.104;2023-05-20T07:08:06;7.10;;;2.70;;
61038;SDS011;46919;45.816;3.104;2023-05-20T07:10:32;5.43;;;2.47;;
61038;SDS011;46919;45.816;3.104;2023-05-20T07:12:58;4.78;;;2.30;;
61038;SDS011;46919;45.816;3.104;2023-05-20T07:15:23;6.85;;;2.72;;
61038;SDS011;46919;45.816;3.104;2023-05-20T07:17:49;6.72;;;2.80;;
61038;SDS011;46919;45.816;3.104;2023-05-20T07:20:14;9.48;;;2.50;;
61038;SDS011;46919;45.816;3.104;2023-05-20T07:22:40;7.03;;;2.80;;
61038;SDS011;46919;45.816;3.104;2023-05-20T07:25:05;8.05;;;3.00;;
61038;SDS011;46919;45.816;3.104;2023-05-20T07:27:31;5.80;;;3.47;;
61038;SDS011;46919;45.816;3.104;2023-05-20T07:29:57;6.25;;;2.55;;
61038;SDS011;46919;45.816;3.104;2023-05-20T07:32:22;3.92;;;2.15;;
61038;SDS011;46919;45.816;3.104;2023-05-20T07:34:48;5.47;;;2.90;;
61038;SDS011;46919;45.816;3.104;2023-05-20T07:37:13;7.40;;;2.97;;
61038;SDS011;46919;45.816;3.104;2023-05-20T07:39:39;5.32;;;2.58;;
61038;SDS011;46919;45.816;3.104;2023-05-20T07:42:05;4.03;;;2.60;;
61038;SDS011;46919;45.816;3.104;2023-05-20T07:44:30;9.82;;;2.97;;
61038;SDS011;46919;45.816;3.104;2023-05-20T07:46:56;8.07;;;3.40;;
61038;SDS011;46919;45.816;3.104;2023-05-20T07:49:21;5.82;;;2.60;;
61038;SDS011;46919;45.816;3.104;2023-05-20T07:51:46;5.75;;;2.47;;
61038;SDS011;46919;45.816;3.104;2023-05-20T07:54:12;6.40;;;2.55;;
61038;SDS011;46919;45.816;3.104;2023-05-20T07:56:39;5.00;;;2.53;;
61038;SDS011;46919;45.816;3.104;2023-05-20T07:59:04;10.70;;;2.83;;
61038;SDS011;46919;45.816;3.104;2023-05-20T08:01:30;5.75;;;2.65;;
61038;SDS011;46919;45.816;3.104;2023-05-20T08:03:55;5.82;;;2.83;;
61038;SDS011;46919;45.816;3.104;2023-05-20T08:06:21;8.50;;;2.80;;
61038;SDS011;46919;45.816;3.104;2023-05-20T08:08:48;8.15;;;3.67;;
61038;SDS011;46919;45.816;3.104;2023-05-20T08:11:13;6.70;;;2.60;;
61038;SDS011;46919;45.816;3.104;2023-05-20T08:13:39;5.22;;;2.78;;
61038;SDS011;46919;45.816;3.104;2023-05-20T08:16:04;6.07;;;2.58;;
61038;SDS011;46919;45.816;3.104;2023-05-20T08:18:39;5.97;;;2.72;;
61038;SDS011;46919;45.816;3.104;2023-05-20T08:21:05;7.03;;;2.90;;
61038;SDS011;46919;45.816;3.104;2023-05-20T08:23:34;6.43;;;2.63;;
61038;SDS011;46919;45.816;3.104;2023-05-20T08:26:00;7.45;;;2.75;;
61038;SDS011;46919;45.816;3.104;2023-05-20T08:28:29;5.60;;;2.42;;
61038;SDS011;46919;45.816;3.104;2023-05-20T08:30:54;5.35;;;2.50;;
61038;SDS011;46919;45.816;3.104;2023-05-20T08:33:20;7.85;;;2.90;;
61038;SDS011;46919;45.816;3.104;2023-05-20T08:35:46;7.60;;;3.05;;
61038;SDS011;46919;45.816;3.104;2023-05-20T08:38:12;5.75;;;2.30;;
61038;SDS011;46919;45.816;3.104;2023-05-20T08:40:37;3.45;;;2.22;;
61038;SDS011;46919;45.816;3.104;2023-05-20T08:43:03;5.80;;;2.50;;
61038;SDS011;46919;45.816;3.104;2023-05-20T08:45:33;7.57;;;2.90;;
61038;SDS011;46919;45.816;3.104;2023-05-20T08:48:01;4.80;;;2.50;;
61038;SDS011;46919;45.816;3.104;2023-05-20T08:50:28;9.65;;;3.35;;
61038;SDS011;46919;45.816;3.104;2023-05-20T08:52:54;7.63;;;2.92;;
61038;SDS011;46919;45.816;3.104;2023-05-20T08:55:23;8.38;;;3.10;;
61038;SDS011;46919;45.816;3.104;2023-05-20T08:57:54;3.83;;;2.58;;
61038;SDS011;46919;45.816;3.104;2023-05-20T09:00:20;7.72;;;3.50;;
61038;SDS011;46919;45.816;3.104;2023-05-20T09:02:51;8.38;;;3.05;;
61038;SDS011;46919;45.816;3.104;2023-05-20T09:05:17;7.90;;;3.33;;
61038;SDS011;46919;45.816;3.104;2023-05-20T09:07:43;7.07;;;2.85;;
61038;SDS011;46919;45.816;3.104;2023-05-20T09:10:08;6.07;;;2.80;;
61038;SDS011;46919;45.816;3.104;2023-05-20T09:12:35;6.68;;;2.83;;
61038;SDS011;46919;45.816;3.104;2023-05-20T09:15:01;6.50;;;3.28;;
61038;SDS011;46919;45.816;3.104;2023-05-20T09:17:26;4.82;;;3.05;;
61038;SDS011;46919;45.816;3.104;2023-05-20T09:19:52;4.90;;;3.00;;
61038;SDS011;46919;45.816;3.104;2023-05-20T09:22:21;5.95;;;3.42;;
61038;SDS011;46919;45.816;3.104;2023-05-20T09:24:48;10.02;;;3.47;;
61038;SDS011;46919;45.816;3.104;2023-05-20T09:27:14;9.45;;;3.90;;
61038;SDS011;46919;45.816;3.104;2023-05-20T09:29:40;8.48;;;3.13;;
61038;SDS011;46919;45.816;3.104;2023-05-20T09:32:07;5.22;;;3.55;;
61038;SDS011;46919;45.816;3.104;2023-05-20T09:34:34;6.18;;;3.45;;
61038;SDS011;46919;45.816;3.104;2023-05-20T09:37:01;9.15;;;4.70;;
61038;SDS011;46919;45.816;3.104;2023-05-20T09:39:28;6.15;;;3.28;;
61038;SDS011;46919;45.816;3.104;2023-05-20T09:42:01;4.97;;;3.30;;
61038;SDS011;46919;45.816;3.104;2023-05-20T09:44:32;6.10;;;3.20;;
61038;SDS011;46919;45.816;3.104;2023-05-20T09:46:58;6.40;;;4.20;;
61038;SDS011;46919;45.816;3.104;2023-05-20T09:49:25;5.53;;;3.58;;
61038;SDS011;46919;45.816;3.104;2023-05-20T09:51:50;6.00;;;3.20;;
61038;SDS011;46919;45.816;3.104;2023-05-20T09:54:18;5.65;;;3.65;;
61038;SDS011;46919;45.816;3.104;2023-05-20T09:56:43;5.93;;;3.63;;
61038;SDS011;46919;45.816;3.104;2023-05-20T09:59:11;5.03;;;3.60;;
61038;SDS011;46919;45.816;3.104;2023-05-20T10:01:39;4.63;;;3.28;;
61038;SDS011;46919;45.816;3.104;2023-05-20T10:04:04;7.45;;;4.13;;
61038;SDS011;46919;45.816;3.104;2023-05-20T10:14:54;4.43;;;3.47;;
61038;SDS011;46919;45.816;3.104;2023-05-20T10:18:03;4.88;;;3.08;;
61038;SDS011;46919;45.816;3.104;2023-05-20T10:20:43;5.03;;;3.05;;
61038;SDS011;46919;45.816;3.104;2023-05-20T10:23:22;5.00;;;3.35;;
61038;SDS011;46919;45.816;3.104;2023-05-20T10:25:52;5.47;;;3.40;;
61038;SDS011;46919;45.816;3.104;2023-05-20T10:28:32;5.45;;;3.63;;
61038;SDS011;46919;45.816;3.104;2023-05-20T10:31:00;4.63;;;2.80;;
61038;SDS011;46919;45.816;3.104;2023-05-20T10:33:26;5.97;;;2.90;;
61038;SDS011;46919;45.816;3.104;2023-05-20T10:35:52;6.35;;;3.92;;
61038;SDS011;46919;45.816;3.104;2023-05-20T10:38:19;4.28;;;3.42;;
61038;SDS011;46919;45.816;3.104;2023-05-20T10:40:45;5.05;;;3.10;;
61038;SDS011;46919;45.816;3.104;2023-05-20T10:43:15;5.70;;;2.50;;
61038;SDS011;46919;45.816;3.104;2023-05-20T10:45:50;4.53;;;2.97;;
61038;SDS011;46919;45.816;3.104;2023-05-20T10:48:22;4.50;;;2.30;;
61038;SDS011;46919;45.816;3.104;2023-05-20T10:50:56;6.05;;;2.70;;
61038;SDS011;46919;45.816;3.104;2023-05-20T10:53:29;5.05;;;2.53;;
61038;SDS011;46919;45.816;3.104;2023-05-20T10:56:03;3.25;;;2.67;;
61038;SDS011;46919;45.816;3.104;2023-05-20T10:58:36;4.40;;;3.00;;
61038;SDS011;46919;45.816;3.104;2023-05-20T11:01:02;4.47;;;2.85;;
61038;SDS011;46919;45.816;3.104;2023-05-20T11:03:28;4.18;;;2.63;;
61038;SDS011;46919;45.816;3.104;2023-05-20T11:05:54;4.35;;;2.90;;
61038;SDS011;46919;45.816;3.104;2023-05-20T11:08:20;5.45;;;3.08;;
61038;SDS011;46919;45.816;3.104;2023-05-20T11:10:46;4.97;;;2.65;;
61038;SDS011;46919;45.816;3.104;2023-05-20T11:13:12;4.90;;;2.67;;
61038;SDS011;46919;45.816;3.104;2023-05-20T11:15:39;4.15;;;2.97;;
61038;SDS011;46919;45.816;3.104;2023-05-20T11:18:05;4.40;;;2.80;;
61038;SDS011;46919;45.816;3.104;2023-05-20T11:20:30;3.90;;;2.80;;
61038;SDS011;46919;45.816;3.104;2023-05-20T11:22:59;3.88;;;2.88;;
61038;SDS011;46919;45.816;3.104;2023-05-20T11:25:25;4.32;;;2.63;;
61038;SDS011;46919;45.816;3.104;2023-05-20T11:27:52;3.90;;;2.70;;
61038;SDS011;46919;45.816;3.104;2023-05-20T11:30:18;5.45;;;2.40;;
61038;SDS011;46919;45.816;3.104;2023-05-20T11:35:27;5.53;;;2.95;;
61038;SDS011;46919;45.816;3.104;2023-05-20T11:38:01;4.73;;;2.80;;
61038;SDS011;46919;45.816;3.104;2023-05-20T11:40:28;6.25;;;2.90;;
61038;SDS011;46919;45.816;3.104;2023-05-20T11:42:55;3.88;;;3.15;;
61038;SDS011;46919;45.816;3.104;2023-05-20T11:45:22;3.92;;;2.70;;
61038;SDS011;46919;45.816;3.104;2023-05-20T11:48:01;4.82;;;2.70;;
61038;SDS011;46919;45.816;3.104;2023-05-20T11:50:28;4.25;;;2.55;;
61038;SDS011;46919;45.816;3.104;2023-05-20T11:52:58;3.55;;;2.72;;
61038;SDS011;46919;45.816;3.104;2023-05-20T11:55:24;4.22;;;2.65;;
61038;SDS011;46919;45.816;3.104;2023-05-20T11:57:50;4.50;;;2.80;;
61038;SDS011;46919;45.816;3.104;2023-05-20T12:00:16;4.45;;;2.92;;
61038;SDS011;46919;45.816;3.104;2023-05-20T12:02:43;4.88;;;2.90;;
61038;SDS011;46919;45.816;3.104;2023-05-20T12:05:09;6.68;;;3.25;;
61038;SDS011;46919;45.816;3.104;2023-05-20T12:07:35;7.28;;;3.92;;
61038;SDS011;46919;45.816;3.104;2023-05-20T12:10:01;4.57;;;3.20;;
61038;SDS011;46919;45.816;3.104;2023-05-20T12:12:27;5.40;;;2.90;;
61038;SDS011;46919;45.816;3.104;2023-05-20T12:14:52;4.03;;;2.78;;
61038;SDS011;46919;45.816;3.104;2023-05-20T12:17:18;4.22;;;3.38;;
61038;SDS011;46919;45.816;3.104;2023-05-20T12:19:43;5.50;;;3.67;;
61038;SDS011;46919;45.816;3.104;2023-05-20T12:22:09;3.13;;;2.80;;
61038;SDS011;46919;45.816;3.104;2023-05-20T12:24:34;3.92;;;2.65;;
61038;SDS011;46919;45.816;3.104;2023-05-20T12:26:59;3.88;;;2.60;;
61038;SDS011;46919;45.816;3.104;2023-05-20T12:29:28;4.70;;;2.42;;
61038;SDS011;46919;45.816;3.104;2023-05-20T12:31:53;4.57;;;2.60;;
61038;SDS011;46919;45.816;3.104;2023-05-20T12:34:19;3.22;;;2.40;;
61038;SDS011;46919;45.816;3.104;2023-05-20T12:36:44;4.57;;;2.72;;
61038;SDS011;46919;45.816;3.104;2023-05-20T12:39:10;4.03;;;2.70;;
61038;SDS011;46919;45.816;3.104;2023-05-20T12:41:36;5.13;;;2.83;;
61038;SDS011;46919;45.816;3.104;2023-05-20T12:44:01;4.53;;;2.33;;
61038;SDS011;46919;45.816;3.104;2023-05-20T12:46:27;4.03;;;2.38;;
61038;SDS011;46919;45.816;3.104;2023-05-20T12:48:53;4.35;;;2.80;;
61038;SDS011;46919;45.816;3.104;2023-05-20T12:51:18;3.92;;;2.65;;
61038;SDS011;46919;45.816;3.104;2023-05-20T12:53:45;2.85;;;2.55;;
61038;SDS011;46919;45.816;3.104;2023-05-20T12:56:10;3.28;;;2.03;;
61038;SDS011;46919;45.816;3.104;2023-05-20T12:58:35;3.70;;;2.50;;
61038;SDS011;46919;45.816;3.104;2023-05-20T13:01:01;4.63;;;2.80;;
61038;SDS011;46919;45.816;3.104;2023-05-20T13:03:26;3.80;;;2.60;;
61038;SDS011;46919;45.816;3.104;2023-05-20T13:05:52;3.50;;;2.65;;
61038;SDS011;46919;45.816;3.104;2023-05-20T13:08:17;3.28;;;2.50;;
61038;SDS011;46919;45.816;3.104;2023-05-20T13:10:43;2.90;;;2.20;;
61038;SDS011;46919;45.816;3.104;2023-05-20T13:13:08;3.42;;;2.30;;
61038;SDS011;46919;45.816;3.104;2023-05-20T13:15:33;3.35;;;2.72;;
61038;SDS011;46919;45.816;3.104;2023-05-20T13:17:59;6.57;;;2.88;;
61038;SDS011;46919;45.816;3.104;2023-05-20T13:20:29;6.13;;;2.60;;
61038;SDS011;46919;45.816;3.104;2023-05-20T13:22:55;3.95;;;3.00;;
61038;SDS011;46919;45.816;3.104;2023-05-20T13:25:20;6.75;;;3.08;;
61038;SDS011;46919;45.816;3.104;2023-05-20T13:27:45;5.88;;;2.70;;
61038;SDS011;46919;45.816;3.104;2023-05-20T13:30:11;3.42;;;2.63;;
61038;SDS011;46919;45.816;3.104;2023-05-20T13:32:36;4.05;;;2.58;;
61038;SDS011;46919;45.816;3.104;2023-05-20T13:35:02;3.03;;;2.70;;
61038;SDS011;46919;45.816;3.104;2023-05-20T13:37:27;3.63;;;2.58;;
61038;SDS011;46919;45.816;3.104;2023-05-20T13:39:53;6.65;;;2.83;;
61038;SDS011;46919;45.816;3.104;2023-05-20T13:42:19;4.65;;;2.85;;
61038;SDS011;46919;45.816;3.104;2023-05-20T13:44:45;4.15;;;2.60;;
61038;SDS011;46919;45.816;3.104;2023-05-20T13:47:10;4.63;;;3.03;;
61038;SDS011;46919;45.816;3.104;2023-05-20T13:49:36;4.82;;;2.80;;
61038;SDS011;46919;45.816;3.104;2023-05-20T13:52:01;3.00;;;2.67;;
61038;SDS011;46919;45.816;3.104;2023-05-20T13:54:27;5.25;;;2.55;;
61038;SDS011;46919;45.816;3.104;2023-05-20T13:56:52;4.60;;;2.55;;
61038;SDS011;46919;45.816;3.104;2023-05-20T13:59:18;4.18;;;2.83;;
61038;SDS011;46919;45.816;3.104;2023-05-20T14:01:43;4.70;;;2.65;;
61038;SDS011;46919;45.816;3.104;2023-05-20T14:04:09;3.88;;;2.75;;
61038;SDS011;46919;45.816;3.104;2023-05-20T14:06:36;2.55;;;2.30;;
61038;SDS011;46919;45.816;3.104;2023-05-20T14:09:02;3.70;;;2.75;;
61038;SDS011;46919;45.816;3.104;2023-05-20T14:11:27;5.93;;;3.42;;
61038;SDS011;46919;45.816;3.104;2023-05-20T14:13:53;3.88;;;2.83;;
61038;SDS011;46919;45.816;3.104;2023-05-20T14:16:18;3.85;;;2.80;;
61038;SDS011;46919;45.816;3.104;2023-05-20T14:18:43;4.22;;;2.50;;
61038;SDS011;46919;45.816;3.104;2023-05-20T14:21:10;4.32;;;2.55;;
61038;SDS011;46919;45.816;3.104;2023-05-20T14:23:35;3.63;;;2.70;;
61038;SDS011;46919;45.816;3.104;2023-05-20T14:26:01;3.42;;;2.72;;
61038;SDS011;46919;45.816;3.104;2023-05-20T14:28:26;4.85;;;2.85;;
61038;SDS011;46919;45.816;3.104;2023-05-20T14:30:52;4.07;;;2.75;;
61038;SDS011;46919;45.816;3.104;2023-05-20T14:33:18;4.15;;;2.63;;
61038;SDS011;46919;45.816;3.104;2023-05-20T14:35:44;4.22;;;2.92;;
61038;SDS011;46919;45.816;3.104;2023-05-20T14:38:09;3.88;;;2.97;;
61038;SDS011;46919;45.816;3.104;2023-05-20T14:40:34;3.80;;;2.40;;
61038;SDS011;46919;45.816;3.104;2023-05-20T14:43:00;7.68;;;3.50;;
61038;SDS011;46919;45.816;3.104;2023-05-20T14:45:25;3.90;;;2.90;;
61038;SDS011;46919;45.816;3.104;2023-05-20T14:47:51;4.85;;;2.85;;
61038;SDS011;46919;45.816;3.104;2023-05-20T14:50:16;6.57;;;2.60;;
61038;SDS011;46919;45.816;3.104;2023-05-20T14:52:42;5.32;;;2.97;;
61038;SDS011;46919;45.816;3.104;2023-05-20T14:55:07;4.25;;;2.75;;
61038;SDS011;46919;45.816;3.104;2023-05-20T14:57:32;4.05;;;2.80;;